createdAt,value
2023-02-19T00:06:52.422Z,9.2
2023-02-19T00:16:54.144Z,9.4
2023-02-19T00:36:58.943Z,9.5
2023-02-19T00:47:01.456Z,9.5
2023-02-19T01:07:05.781Z,9.5
2023-02-19T01:17:16.312Z,9.5
2023-02-19T01:27:18.459Z,9.5
2023-02-19T01:37:12.964Z,9.6
2023-02-19T01:57:17.803Z,9.3
2023-02-19T02:10:14.189Z,9.1
2023-02-19T02:17:21.843Z,9.1
2023-02-19T02:30:02.562Z,9.1
2023-02-19T02:37:26.184Z,9
2023-02-19T02:47:28.469Z,8.9
2023-02-19T03:40:17.704Z,8.8
2023-02-19T03:47:41.425Z,8.8
2023-02-19T03:57:44.093Z,8.8
2023-02-19T04:07:46.178Z,8.7
2023-02-19T04:17:48.034Z,8.7
2023-02-19T04:27:58.592Z,8.7
2023-02-19T04:47:54.372Z,8.6
2023-02-19T04:57:56.117Z,8.6
2023-02-19T05:08:06.602Z,8.6
2023-02-19T05:18:00.455Z,8.6
2023-02-19T05:38:04.295Z,8.5
2023-02-19T05:48:14.882Z,8.5
2023-02-19T05:58:08.938Z,8.5
2023-02-19T06:18:13.259Z,8.4
2023-02-19T06:28:15.529Z,8.3
2023-02-19T06:48:19.428Z,8.2
2023-02-19T07:00:59.587Z,8.1
2023-02-19T07:08:31.756Z,8.1
2023-02-19T07:21:04.389Z,8.2
2023-02-19T07:48:40.931Z,8.2
2023-02-19T07:58:34.995Z,8.2
2023-02-19T08:08:37.017Z,8.1
2023-02-19T08:21:16.877Z,8.1
2023-02-19T08:28:48.930Z,8.2
2023-02-19T08:48:45.270Z,8.2
2023-02-19T08:58:55.413Z,8.1
2023-02-19T09:08:49.728Z,8.2
2023-02-19T09:18:52.323Z,8.2
2023-02-19T09:28:54.088Z,8.4
2023-02-19T09:39:03.989Z,8.3
2023-02-19T09:48:58.554Z,8.4
2023-02-19T09:59:00.395Z,8.3
2023-02-19T10:09:02.638Z,8.2
2023-02-19T10:19:12.606Z,8.5
2023-02-19T10:29:06.694Z,8.3
2023-02-19T10:39:08.694Z,7.2
2023-02-19T10:49:11.419Z,6.2
2023-02-19T10:59:13.199Z,6.2
2023-02-19T11:09:14.889Z,6.2
2023-02-19T11:19:18.297Z,6.1
2023-02-19T11:29:19.362Z,6
2023-02-19T11:39:21.915Z,6
2023-02-19T11:49:23.878Z,6.1
2023-02-19T11:59:33.645Z,6.1
2023-02-19T12:09:27.560Z,6.1
2023-02-19T12:19:29.877Z,6.4
2023-02-19T12:29:32.153Z,6.2
2023-02-19T12:39:33.848Z,6.3
2023-02-19T12:49:36.367Z,6.4
2023-02-19T12:59:38.454Z,6.5
2023-02-19T13:09:41.215Z,6.4
2023-02-19T13:29:45.650Z,6.6
2023-02-19T13:49:50.123Z,6.5
2023-02-19T13:59:52.401Z,6.6
2023-02-19T14:09:54.176Z,6.7
2023-02-19T14:29:58.147Z,6.7
2023-02-19T14:40:00.499Z,6.5
2023-02-19T14:50:02.502Z,6.7
2023-02-19T15:00:04.378Z,6.7
2023-02-19T15:10:06.721Z,6.7
2023-02-19T15:30:11.430Z,6.7
2023-02-19T15:50:15.650Z,6.9
2023-02-19T16:00:18.128Z,7.1
2023-02-19T16:20:22.837Z,7.2
2023-02-19T16:30:32.854Z,7.4
2023-02-19T16:40:35.318Z,7.3
2023-02-19T16:50:29.020Z,7.3
2023-02-19T17:00:31.138Z,7.4
2023-02-19T17:10:41.550Z,7.2
2023-02-19T17:20:35.283Z,7
2023-02-19T17:30:39.877Z,7
2023-02-19T17:40:39.597Z,7
2023-02-19T17:50:48.987Z,6.9
2023-02-19T17:53:19.415Z,6.9
2023-02-19T18:11:03.139Z,6.5
2023-02-19T18:51:12.585Z,5.8
2023-02-19T19:11:15.806Z,5.7
2023-02-19T19:31:21.025Z,5.6
2023-02-19T19:51:24.480Z,5.5
2023-02-19T20:01:27.032Z,5.6
2023-02-19T20:11:29.150Z,5.5
2023-02-19T20:21:30.917Z,5.5
2023-02-19T20:31:32.949Z,5.5
2023-02-19T20:41:34.779Z,5.5
2023-02-19T20:51:37.275Z,5.5
2023-02-19T21:01:39.708Z,5.5
2023-02-19T21:11:41.655Z,5.5
2023-02-19T21:21:44.205Z,5.4
2023-02-19T21:31:46.324Z,5.3
2023-02-19T21:41:48.878Z,5.4
2023-02-19T21:51:50.878Z,5.4
2023-02-19T22:11:55.859Z,5.5
2023-02-19T22:21:58.230Z,5.6
2023-02-19T22:32:00.124Z,5.6
2023-02-19T22:52:04.616Z,5.4
2023-02-19T23:02:06.363Z,5.3
2023-02-19T23:42:15.465Z,4.9
2023-02-19T23:52:17.231Z,4.9
